Western Pride — WDD5447 — position and weather

sailwx.info

Track history (hours):
 
Tides and Currents Weather Stations Pressure Air Temp Water Temp Dewpoint Dewpoint Depression Visibility Wind Speed Wind Dir Waves Ship Positions

Western Pride

Owner: Western Pride, Balboa, CA. More information available from US FCC via Universal Licensing System and Coast Guard Vessel Documentation Center.

Last reported at 2018-Feb-03 01:26 UTC. Time now 2018-Feb-20 12:02 UTC.
Position N 33°35' W 117°53'.
Warning: this ship's position is 17 days out of date.

Length 23 m.

Type: Passenger vessel. MMSI: 367158550.

Date/timePositionNaut miles runAvg speedWind from/ knotsBaromVisibWave heightAir tempDewpointWater temp
2018-Feb-03 01:26N 33°35' W 117°53'410.2
2018-Feb-03 01:00N 33°32' W 117°58'510.3
2018-Feb-03 00:30N 33°29' W 118°03'610.1
2018-Feb-02 23:53N 33°25' W 118°08'410.1
2018-Feb-02 23:30N 33°22' W 118°12'6 4.7
2018-Feb-02 22:07N 33°18' W 118°18'0 3.0
2018-Feb-02 22:00N 33°19' W 118°18'1 1.2
2018-Feb-02 20:59N 33°20' W 118°18'1 1.6
2018-Feb-02 20:24N 33°21' W 118°18'410.0
2018-Feb-02 19:59N 33°24' W 118°15'10 9.9
2018-Feb-02 19:00N 33°33' W 118°09'2 3.7
2018-Feb-02 18:30N 33°34' W 118°08'0 0.0
2018-Feb-02 17:59N 33°34' W 118°08'0 0.0
2018-Feb-02 16:45N 33°34' W 118°08'1 5.3
2018-Feb-02 16:30N 33°34' W 118°07'1010.0
2018-Feb-02 15:30N 33°35' W 117°55'1 1.4
2018-Feb-02 14:30N 33°36' W 117°54'4 0.2
2018-Feb-01 19:30N 33°35' W 117°59'5 9.7
2018-Feb-01 19:00N 33°35' W 118°05'3 5.9
2018-Feb-01 18:30N 33°34' W 118°08'0 0.0
2018-Feb-01 18:00N 33°34' W 118°08'0 0.0
2018-Feb-01 17:30N 33°34' W 118°08'0 0.0
2018-Feb-01 17:00N 33°34' W 118°08'0 0.0
2018-Feb-01 16:30N 33°34' W 118°08'1 1.8
2018-Feb-01 15:58N 33°34' W 118°07'510.4
2018-Feb-01 15:30N 33°35' W 118°02'510.3
2018-Feb-01 15:00N 33°35' W 117°55'  
2018-Jan-28 23:32N 33°39' W 118°06'0 1.7
2018-Jan-28 23:30N 33°39' W 118°06'0 0.0
2018-Jan-28 23:00N 33°39' W 118°06'0 0.0
2018-Jan-28 22:30N 33°39' W 118°06'0 0.0
2018-Jan-28 22:00N 33°39' W 118°06'0 0.0
2018-Jan-28 21:30N 33°39' W 118°06'0 0.0
2018-Jan-28 21:00N 33°39' W 118°06'0 0.0
2018-Jan-28 20:30N 33°39' W 118°06'3 5.7
2018-Jan-28 20:00N 33°36' W 118°07'2 4.4
2018-Jan-28 19:30N 33°34' W 118°08'0 0.0
2018-Jan-28 18:57N 33°34' W 118°08'0 0.0
2018-Jan-28 18:29N 33°34' W 118°08'0 0.1
2018-Jan-28 17:50N 33°34' W 118°08'0 0.0
2018-Jan-28 16:38N 33°34' W 118°08'0 0.2
2018-Jan-28 16:27N 33°34' W 118°08'0 0.1
2018-Jan-28 15:52N 33°34' W 118°08'3 6.1
2018-Jan-28 15:24N 33°34' W 118°05'4 9.4
2018-Jan-28 15:00N 33°35' W 118°01'6 0.1
2018-Jan-26 23:25N 33°39' W 118°05'1 2.0
2018-Jan-26 23:00N 33°39' W 118°06'0 0.3
2018-Jan-26 22:30N 33°40' W 118°06'0 0.1
2018-Jan-26 22:00N 33°40' W 118°06'0 0.1
2018-Jan-26 21:26N 33°40' W 118°06'3 7.9
2018-Jan-26 21:00N 33°36' W 118°07'2 3.7
2018-Jan-26 20:26N 33°34' W 118°08'0 0.5
2018-Jan-26 19:58N 33°34' W 118°09'0 0.3
2018-Jan-26 19:22N 33°34' W 118°08'  
Track history (hours):
 
Tides and Currents Weather Stations Pressure Air Temp Water Temp Dewpoint Dewpoint Depression Visibility Wind Speed Wind Dir Waves Ship Positions

Western Pride

Owner: Western Pride, Balboa, CA. More information available from US FCC via Universal Licensing System and Coast Guard Vessel Documentation Center.

Last reported at 2018-Feb-03 01:26 UTC. Time now 2018-Feb-20 12:02 UTC.
Position N 33°35' W 117°53'.
Warning: this ship's position is 17 days out of date.

Length 23 m.

Type: Passenger vessel. MMSI: 367158550.

Date/timePositionNaut miles runAvg speedWind from/ knotsBaromVisibWave heightAir tempDewpointWater temp
2018-Feb-03 01:26N 33°35' W 117°53'410.2
2018-Feb-03 01:00N 33°32' W 117°58'510.3
2018-Feb-03 00:30N 33°29' W 118°03'610.1
2018-Feb-02 23:53N 33°25' W 118°08'410.1
2018-Feb-02 23:30N 33°22' W 118°12'6 4.7
2018-Feb-02 22:07N 33°18' W 118°18'0 3.0
2018-Feb-02 22:00N 33°19' W 118°18'1 1.2
2018-Feb-02 20:59N 33°20' W 118°18'1 1.6
2018-Feb-02 20:24N 33°21' W 118°18'410.0
2018-Feb-02 19:59N 33°24' W 118°15'10 9.9
2018-Feb-02 19:00N 33°33' W 118°09'2 3.7
2018-Feb-02 18:30N 33°34' W 118°08'0 0.0
2018-Feb-02 17:59N 33°34' W 118°08'0 0.0
2018-Feb-02 16:45N 33°34' W 118°08'1 5.3
2018-Feb-02 16:30N 33°34' W 118°07'1010.0
2018-Feb-02 15:30N 33°35' W 117°55'1 1.4
2018-Feb-02 14:30N 33°36' W 117°54'4 0.2
2018-Feb-01 19:30N 33°35' W 117°59'5 9.7
2018-Feb-01 19:00N 33°35' W 118°05'3 5.9
2018-Feb-01 18:30N 33°34' W 118°08'0 0.0
2018-Feb-01 18:00N 33°34' W 118°08'0 0.0
2018-Feb-01 17:30N 33°34' W 118°08'0 0.0
2018-Feb-01 17:00N 33°34' W 118°08'0 0.0
2018-Feb-01 16:30N 33°34' W 118°08'1 1.8
2018-Feb-01 15:58N 33°34' W 118°07'510.4
2018-Feb-01 15:30N 33°35' W 118°02'510.3
2018-Feb-01 15:00N 33°35' W 117°55'  
2018-Jan-28 23:32N 33°39' W 118°06'0 1.7
2018-Jan-28 23:30N 33°39' W 118°06'0 0.0
2018-Jan-28 23:00N 33°39' W 118°06'0 0.0
2018-Jan-28 22:30N 33°39' W 118°06'0 0.0
2018-Jan-28 22:00N 33°39' W 118°06'0 0.0
2018-Jan-28 21:30N 33°39' W 118°06'0 0.0
2018-Jan-28 21:00N 33°39' W 118°06'0 0.0
2018-Jan-28 20:30N 33°39' W 118°06'3 5.7
2018-Jan-28 20:00N 33°36' W 118°07'2 4.4
2018-Jan-28 19:30N 33°34' W 118°08'0 0.0
2018-Jan-28 18:57N 33°34' W 118°08'0 0.0
2018-Jan-28 18:29N 33°34' W 118°08'0 0.1
2018-Jan-28 17:50N 33°34' W 118°08'0 0.0
2018-Jan-28 16:38N 33°34' W 118°08'0 0.2
2018-Jan-28 16:27N 33°34' W 118°08'0 0.1
2018-Jan-28 15:52N 33°34' W 118°08'3 6.1
2018-Jan-28 15:24N 33°34' W 118°05'4 9.4
2018-Jan-28 15:00N 33°35' W 118°01'6 0.1
2018-Jan-26 23:25N 33°39' W 118°05'1 2.0
2018-Jan-26 23:00N 33°39' W 118°06'0 0.3
2018-Jan-26 22:30N 33°40' W 118°06'0 0.1
2018-Jan-26 22:00N 33°40' W 118°06'0 0.1
2018-Jan-26 21:26N 33°40' W 118°06'3 7.9
2018-Jan-26 21:00N 33°36' W 118°07'2 3.7
2018-Jan-26 20:26N 33°34' W 118°08'0 0.5
2018-Jan-26 19:58N 33°34' W 118°09'0 0.3
2018-Jan-26 19:22N 33°34' W 118°08'  

Dump ship's entire track history